Time;durP1;ratioP1;P1;durP2;ratioP2;P2;SDS_P1;SDS_P2;PMS_P1;PMS_P2;Temp;Humidity;BMP_temperature;BMP_pressure;BME280_temperature;BME280_humidity;BME280_pressure;Samples;Min_cycle;Max_cycle;Signal;HPM_P1;HPM_P2
2021/01/20 09:15:37;;;;;;;;;107.50;96.75;;;;;;;;5077035;22;983818;-73
2021/01/20 09:18:06;;;;;;;;;104.25;96.00;;;;;;;;5074545;28;8858;-72
2021/01/20 09:20:32;;;;;;;;;111.25;98.75;;;;;;;;5073957;28;8859;-71
2021/01/20 09:22:58;;;;;;;;;105.25;96.00;;;;;;;;5074966;28;8857;-71
2021/01/20 09:25:24;;;;;;;;;105.00;90.25;;;;;;;;5075883;28;8856;-71
2021/01/20 09:27:50;;;;;;;;;97.25;83.50;;;;;;;;5074328;28;8871;-70
2021/01/20 09:30:17;;;;;;;;;104.25;95.25;;;;;;;;5074901;28;8879;-71
2021/01/20 09:32:43;;;;;;;;;41.00;17.25;;;;;;;;5075210;28;8838;-71
2021/01/20 09:35:10;;;;;;;;;104.50;95.50;;;;;;;;5078220;28;8852;-73
2021/01/20 09:37:37;;;;;;;;;100.75;92.25;;;;;;;;5076035;28;8858;-76
2021/01/20 09:40:04;;;;;;;;;113.50;102.75;;;;;;;;5074421;28;8858;-72
2021/01/20 09:42:30;;;;;;;;;102.50;92.00;;;;;;;;5076247;28;8828;-75
2021/01/20 09:44:56;;;;;;;;;113.25;103.75;;;;;;;;5076974;28;8831;-77
2021/01/20 09:47:22;;;;;;;;;141.00;134.00;;;;;;;;5077778;28;8844;-77
2021/01/20 09:49:49;;;;;;;;;134.75;126.75;;;;;;;;5075959;28;8889;-76
2021/01/20 09:52:17;;;;;;;;;156.75;139.75;;;;;;;;5079312;28;8982;-76
2021/01/20 09:54:43;;;;;;;;;142.50;131.00;;;;;;;;5076176;28;8838;-77
2021/01/20 09:57:09;;;;;;;;;111.25;105.50;;;;;;;;5084688;28;8824;-77
2021/01/20 09:59:35;;;;;;;;;118.00;105.50;;;;;;;;5081505;28;8859;-76
2021/01/20 10:02:01;;;;;;;;;106.75;96.25;;;;;;;;5076554;28;8850;-74
2021/01/20 10:04:29;;;;;;;;;112.00;104.25;;;;;;;;5076678;28;9279;-74
2021/01/20 10:06:56;;;;;;;;;123.75;112.25;;;;;;;;5072028;28;9001;-74
2021/01/20 10:09:22;;;;;;;;;117.00;104.50;;;;;;;;5074353;28;8917;-72
2021/01/20 10:11:49;;;;;;;;;109.75;97.00;;;;;;;;5072574;28;8883;-73
2021/01/20 10:14:16;;;;;;;;;115.25;106.00;;;;;;;;5073681;28;8826;-75
2021/01/20 10:16:42;;;;;;;;;102.25;99.00;;;;;;;;5077339;28;8824;-75
2021/01/20 10:19:08;;;;;;;;;112.00;101.50;;;;;;;;5071774;28;8850;-72
2021/01/20 10:21:34;;;;;;;;;111.25;99.50;;;;;;;;5075679;28;8890;-72
2021/01/20 10:24:01;;;;;;;;;108.50;100.50;;;;;;;;5074384;28;8838;-72
2021/01/20 10:26:27;;;;;;;;;114.50;103.00;;;;;;;;5064272;28;8947;-72
2021/01/20 10:28:53;;;;;;;;;111.75;105.00;;;;;;;;5058928;28;8884;-72
2021/01/20 10:31:19;;;;;;;;;96.75;93.50;;;;;;;;5060895;28;8850;-71
2021/01/20 10:33:45;;;;;;;;;104.00;96.25;;;;;;;;5056086;28;8831;-71
2021/01/20 10:36:11;;;;;;;;;118.50;110.75;;;;;;;;5058823;28;9620;-72
2021/01/20 10:38:37;;;;;;;;;111.25;106.25;;;;;;;;5061850;28;8848;-73
2021/01/20 10:41:03;;;;;;;;;115.25;107.00;;;;;;;;5061303;28;8883;-78
2021/01/20 10:43:29;;;;;;;;;115.50;107.00;;;;;;;;5062226;28;8839;-71
2021/01/20 10:45:58;;;;;;;;;115.00;106.75;;;;;;;;5062210;28;8840;-75
2021/01/20 10:48:24;;;;;;;;;116.50;105.00;;;;;;;;5060735;28;8842;-70
2021/01/20 10:50:50;;;;;;;;;117.75;107.00;;;;;;;;5060011;28;8829;-71
2021/01/20 10:53:16;;;;;;;;;112.50;103.00;;;;;;;;5057333;28;8862;-70
2021/01/20 10:55:42;;;;;;;;;109.50;100.00;;;;;;;;5056556;28;8833;-70
2021/01/20 10:58:09;;;;;;;;;108.00;101.00;;;;;;;;5059642;28;8842;-69
2021/01/20 11:00:39;;;;;;;;;115.25;103.50;;;;;;;;5056724;28;8844;-70
2021/01/20 11:03:04;;;;;;;;;110.50;100.75;;;;;;;;5056960;28;8860;-70
2021/01/20 11:05:31;;;;;;;;;107.50;101.00;;;;;;;;5060910;28;8854;-70
2021/01/20 11:07:56;;;;;;;;;105.25;94.75;;;;;;;;5059495;28;8811;-70
2021/01/20 11:10:22;;;;;;;;;97.75;90.00;;;;;;;;5059547;28;9612;-71
2021/01/20 11:12:48;;;;;;;;;99.25;93.50;;;;;;;;5059354;28;8843;-70
2021/01/20 11:15:18;;;;;;;;;106.00;95.25;;;;;;;;5059088;28;8831;-70
2021/01/20 11:17:44;;;;;;;;;99.50;92.75;;;;;;;;5055932;28;9635;-71
2021/01/20 11:20:10;;;;;;;;;98.50;90.00;;;;;;;;5058958;28;8848;-68
2021/01/20 11:22:36;;;;;;;;;100.50;92.75;;;;;;;;5061061;28;8893;-72
2021/01/20 11:25:03;;;;;;;;;98.25;91.00;;;;;;;;5059223;28;8873;-71
2021/01/20 11:27:29;;;;;;;;;98.50;86.75;;;;;;;;5059414;28;8850;-71
2021/01/20 11:29:54;;;;;;;;;104.50;92.00;;;;;;;;5058322;28;8846;-69
2021/01/20 11:32:22;;;;;;;;;114.00;103.50;;;;;;;;5057869;28;9639;-84
2021/01/20 11:35:29;;;;;;;;;99.50;85.25;;;;;;;;5115279;27;13519;-67
2021/01/20 11:37:56;;;;;;;;;99.25;87.50;;;;;;;;5097569;28;8913;-67
2021/01/20 11:40:22;;;;;;;;;144.50;129.25;;;;;;;;5095682;28;8876;-67
2021/01/20 11:42:48;;;;;;;;;112.00;107.75;;;;;;;;5094657;28;8864;-67
2021/01/20 11:45:14;;;;;;;;;103.75;91.25;;;;;;;;5094366;28;8835;-67
2021/01/20 11:47:40;;;;;;;;;96.75;90.50;;;;;;;;5099542;28;9044;-67
2021/01/20 11:50:07;;;;;;;;;101.25;95.25;;;;;;;;5095272;28;8816;-66
2021/01/20 11:52:34;;;;;;;;;99.75;90.50;;;;;;;;5095861;28;8844;-67
2021/01/20 11:55:00;;;;;;;;;107.50;94.75;;;;;;;;5095394;28;8879;-69
2021/01/20 11:57:27;;;;;;;;;108.50;98.75;;;;;;;;5094751;28;8851;-69
2021/01/20 11:59:52;;;;;;;;;102.25;94.00;;;;;;;;5093172;28;8874;-68
2021/01/20 12:02:18;;;;;;;;;103.00;98.00;;;;;;;;5092913;28;8882;-69
2021/01/20 12:04:56;;;;;;;;;104.50;97.25;;;;;;;;5096149;28;8863;-69
2021/01/20 12:07:22;;;;;;;;;100.50;93.00;;;;;;;;5093915;28;9717;-69
2021/01/20 12:09:49;;;;;;;;;111.75;102.25;;;;;;;;5092615;28;8855;-68
2021/01/20 12:12:15;;;;;;;;;98.75;90.75;;;;;;;;5097077;28;8851;-69
2021/01/20 12:14:41;;;;;;;;;107.25;96.50;;;;;;;;5096544;28;8836;-69
2021/01/20 12:17:07;;;;;;;;;109.50;99.75;;;;;;;;5094798;28;8987;-69
2021/01/20 12:19:33;;;;;;;;;108.75;99.75;;;;;;;;5095277;28;8864;-69
2021/01/20 12:21:59;;;;;;;;;109.50;98.00;;;;;;;;5095342;28;8954;-68
2021/01/20 12:24:25;;;;;;;;;108.00;100.00;;;;;;;;5101231;28;8844;-67
2021/01/20 12:26:54;;;;;;;;;98.00;89.75;;;;;;;;5099300;28;8848;-68
2021/01/20 12:29:20;;;;;;;;;101.00;92.75;;;;;;;;5100810;28;8851;-69
2021/01/20 12:31:46;;;;;;;;;92.25;80.75;;;;;;;;5098932;28;8823;-70
2021/01/20 12:34:12;;;;;;;;;102.00;88.00;;;;;;;;5094468;28;8831;-69
2021/01/20 12:36:37;;;;;;;;;104.75;93.75;;;;;;;;5097574;28;8943;-68
2021/01/20 12:39:04;;;;;;;;;96.00;88.00;;;;;;;;5095210;28;8859;-68
2021/01/20 12:41:30;;;;;;;;;95.25;85.25;;;;;;;;5096581;28;8838;-68
2021/01/20 12:43:57;;;;;;;;;93.75;87.00;;;;;;;;5096362;28;8851;-69
2021/01/20 12:46:23;;;;;;;;;94.50;84.00;;;;;;;;5084088;28;8863;-67
2021/01/20 12:48:49;;;;;;;;;88.75;75.50;;;;;;;;5083439;28;8987;-67
2021/01/20 12:51:14;;;;;;;;;93.75;84.75;;;;;;;;5084270;28;8987;-68
2021/01/20 12:53:40;;;;;;;;;94.00;88.50;;;;;;;;5080724;28;8965;-68
2021/01/20 12:56:06;;;;;;;;;94.00;88.00;;;;;;;;5079875;28;8835;-69
2021/01/20 12:58:32;;;;;;;;;94.25;85.25;;;;;;;;5081581;28;9606;-69
2021/01/20 13:00:59;;;;;;;;;92.50;83.00;;;;;;;;5076060;28;8867;-69
2021/01/20 13:03:25;;;;;;;;;95.00;83.25;;;;;;;;5081402;28;8947;-69
2021/01/20 13:05:51;;;;;;;;;92.25;83.75;;;;;;;;5091805;28;8866;-68
2021/01/20 13:08:17;;;;;;;;;92.75;86.50;;;;;;;;5080582;28;8879;-67
2021/01/20 13:10:43;;;;;;;;;95.00;82.00;;;;;;;;5083932;28;8955;-67
2021/01/20 13:13:09;;;;;;;;;92.00;78.75;;;;;;;;5080694;28;8845;-68
2021/01/20 13:15:35;;;;;;;;;82.00;64.50;;;;;;;;5085702;28;8855;-68
2021/01/20 13:18:02;;;;;;;;;85.50;68.00;;;;;;;;5080768;28;8878;-68
2021/01/20 13:20:28;;;;;;;;;87.50;73.75;;;;;;;;5081345;28;8835;-67
2021/01/20 13:22:54;;;;;;;;;85.50;70.00;;;;;;;;5088739;28;8832;-67
2021/01/20 13:25:21;;;;;;;;;85.50;72.25;;;;;;;;5083256;28;8860;-67
2021/01/20 13:27:47;;;;;;;;;85.25;68.50;;;;;;;;5080261;28;8907;-65
2021/01/20 13:30:13;;;;;;;;;79.50;65.50;;;;;;;;5082651;28;8856;-66
2021/01/20 13:32:39;;;;;;;;;84.25;68.75;;;;;;;;5080519;28;8824;-68
2021/01/20 13:35:07;;;;;;;;;74.25;58.00;;;;;;;;5083333;28;9049;-71
2021/01/20 13:37:33;;;;;;;;;83.00;65.75;;;;;;;;5081329;28;8953;-68
2021/01/20 13:39:59;;;;;;;;;84.75;67.25;;;;;;;;5081948;28;8852;-68
2021/01/20 13:42:24;;;;;;;;;82.25;68.50;;;;;;;;5080347;28;8854;-68
2021/01/20 13:44:50;;;;;;;;;81.50;63.50;;;;;;;;5083930;28;8852;-68
2021/01/20 13:47:17;;;;;;;;;85.25;68.25;;;;;;;;5078787;28;8820;-68
2021/01/20 13:49:44;;;;;;;;;84.25;65.25;;;;;;;;4995073;28;11965;-66
2021/01/20 13:52:11;;;;;;;;;84.50;71.00;;;;;;;;5045897;28;8845;-67
2021/01/20 13:54:39;;;;;;;;;83.00;68.75;;;;;;;;5049501;28;8853;-66
2021/01/20 13:57:06;;;;;;;;;79.50;62.00;;;;;;;;5048972;28;8861;-68
2021/01/20 13:59:32;;;;;;;;;81.00;64.00;;;;;;;;5047588;28;8838;-68
2021/01/20 14:01:58;;;;;;;;;84.25;66.25;;;;;;;;5049862;28;8944;-68
2021/01/20 14:04:24;;;;;;;;;83.75;66.25;;;;;;;;5050516;28;8948;-67
2021/01/20 14:06:50;;;;;;;;;81.00;63.50;;;;;;;;5050425;28;8837;-67
2021/01/20 14:09:16;;;;;;;;;87.00;72.00;;;;;;;;5049999;28;8880;-67
2021/01/20 14:11:42;;;;;;;;;83.75;65.50;;;;;;;;5050342;28;8852;-68
2021/01/20 14:14:08;;;;;;;;;85.00;68.00;;;;;;;;5050454;28;9573;-69
2021/01/20 14:16:35;;;;;;;;;85.25;73.25;;;;;;;;5045035;28;9322;-68
2021/01/20 14:19:01;;;;;;;;;82.00;68.25;;;;;;;;5048550;28;8941;-68
2021/01/20 14:21:27;;;;;;;;;86.50;71.75;;;;;;;;5028773;28;10394;-68
2021/01/20 14:23:53;;;;;;;;;87.00;71.50;;;;;;;;5052548;28;8849;-67
2021/01/20 14:26:20;;;;;;;;;81.00;63.50;;;;;;;;5047805;28;8885;-68
2021/01/20 14:28:46;;;;;;;;;85.75;71.25;;;;;;;;5046872;28;8861;-69
2021/01/20 14:31:15;;;;;;;;;80.25;64.75;;;;;;;;5048297;28;8837;-68
2021/01/20 14:33:41;;;;;;;;;83.25;62.00;;;;;;;;5047911;28;8850;-69
2021/01/20 14:36:08;;;;;;;;;83.75;68.00;;;;;;;;5048139;28;8854;-67
2021/01/20 14:38:34;;;;;;;;;80.00;62.00;;;;;;;;5045563;28;9405;-68
2021/01/20 14:41:02;;;;;;;;;84.75;67.50;;;;;;;;5048379;28;8853;-68
2021/01/20 14:43:31;;;;;;;;;82.50;64.75;;;;;;;;5047395;28;8988;-67
2021/01/20 14:45:57;;;;;;;;;88.50;69.25;;;;;;;;5048099;28;8837;-67
2021/01/20 14:48:23;;;;;;;;;83.25;63.75;;;;;;;;5046848;28;8976;-68
2021/01/20 14:50:49;;;;;;;;;81.00;64.50;;;;;;;;5048512;28;8960;-68
2021/01/20 14:53:15;;;;;;;;;84.00;67.75;;;;;;;;5047157;28;9654;-68
2021/01/20 14:55:41;;;;;;;;;82.25;65.25;;;;;;;;5047764;28;9510;-68
2021/01/20 14:58:07;;;;;;;;;78.50;61.75;;;;;;;;5048559;28;9546;-68
2021/01/20 15:00:33;;;;;;;;;85.00;66.25;;;;;;;;5016187;28;10910;-70
2021/01/20 15:02:59;;;;;;;;;79.00;62.00;;;;;;;;5047731;28;8983;-70
2021/01/20 15:05:25;;;;;;;;;79.75;63.00;;;;;;;;5047823;28;9030;-69
2021/01/20 15:07:51;;;;;;;;;82.75;64.75;;;;;;;;5048017;28;8829;-70
2021/01/20 15:10:18;;;;;;;;;83.50;64.00;;;;;;;;5046901;28;8837;-68
2021/01/20 15:12:44;;;;;;;;;83.50;63.00;;;;;;;;5048248;28;8857;-71
2021/01/20 15:15:10;;;;;;;;;85.00;65.50;;;;;;;;5046964;28;8837;-75
2021/01/20 15:17:37;;;;;;;;;83.75;68.25;;;;;;;;5046683;28;8834;-70
2021/01/20 15:20:03;;;;;;;;;75.75;60.50;;;;;;;;5048081;28;8838;-69
2021/01/20 15:22:29;;;;;;;;;78.75;63.00;;;;;;;;5047343;28;8845;-71
2021/01/20 15:24:55;;;;;;;;;76.25;61.00;;;;;;;;5048441;28;8934;-70
2021/01/20 15:27:21;;;;;;;;;77.25;60.25;;;;;;;;5047675;28;8888;-70
2021/01/20 15:29:47;;;;;;;;;80.75;62.25;;;;;;;;5040050;28;9669;-70
2021/01/20 15:32:13;;;;;;;;;77.75;63.00;;;;;;;;5044330;28;8834;-71
2021/01/20 15:34:40;;;;;;;;;78.75;62.75;;;;;;;;5044064;28;8881;-71
2021/01/20 15:37:06;;;;;;;;;75.00;60.00;;;;;;;;5045634;28;8849;-73
2021/01/20 15:39:32;;;;;;;;;79.25;62.00;;;;;;;;5045592;28;8876;-70
2021/01/20 15:41:57;;;;;;;;;76.50;58.00;;;;;;;;5048185;28;9601;-69
2021/01/20 15:44:23;;;;;;;;;76.50;60.00;;;;;;;;5043507;28;8869;-68
2021/01/20 15:46:49;;;;;;;;;76.75;59.00;;;;;;;;5047689;28;9579;-68
2021/01/20 15:49:15;;;;;;;;;73.50;56.75;;;;;;;;5047267;28;8999;-68
2021/01/20 15:51:42;;;;;;;;;73.50;58.00;;;;;;;;5048287;28;8889;-68
2021/01/20 15:54:08;;;;;;;;;70.75;55.75;;;;;;;;5048114;28;8963;-68
2021/01/20 15:56:34;;;;;;;;;72.75;55.25;;;;;;;;5047558;28;8981;-68
2021/01/20 15:59:01;;;;;;;;;70.00;55.67;;;;;;;;5046530;28;9659;-68
2021/01/20 16:01:27;;;;;;;;;71.33;56.00;;;;;;;;5040153;28;8845;-68
2021/01/20 16:03:53;;;;;;;;;66.33;53.00;;;;;;;;5037101;28;8984;-69
2021/01/20 16:06:22;;;;;;;;;69.00;55.00;;;;;;;;5039620;28;8853;-69
2021/01/20 16:08:50;;;;;;;;;71.00;55.00;;;;;;;;5043816;28;8867;-68
2021/01/20 16:11:16;;;;;;;;;64.33;52.00;;;;;;;;5043350;28;8861;-68
2021/01/20 16:13:42;;;;;;;;;63.67;51.33;;;;;;;;5039780;28;8959;-68
2021/01/20 16:16:08;;;;;;;;;66.00;52.00;;;;;;;;5039714;28;8866;-67
2021/01/20 16:18:34;;;;;;;;;68.67;52.00;;;;;;;;5036336;28;8877;-69
2021/01/20 16:21:00;;;;;;;;;69.33;55.00;;;;;;;;5039458;28;8922;-68
2021/01/20 16:23:26;;;;;;;;;67.50;53.00;;;;;;;;5048086;28;8837;-69
2021/01/20 16:25:52;;;;;;;;;64.75;52.00;;;;;;;;5044172;28;8828;-69
2021/01/20 16:28:18;;;;;;;;;69.25;54.75;;;;;;;;5040950;28;9018;-69
2021/01/20 16:30:46;;;;;;;;;63.00;50.33;;;;;;;;5048470;28;9670;-69
2021/01/20 16:33:12;;;;;;;;;63.00;54.00;;;;;;;;5052043;28;8876;-71
2021/01/20 16:35:38;;;;;;;;;68.33;53.67;;;;;;;;5052163;28;8817;-67
2021/01/20 16:38:04;;;;;;;;;68.33;57.33;;;;;;;;5050977;28;8861;-68
2021/01/20 16:40:30;;;;;;;;;68.00;56.33;;;;;;;;5051893;28;8880;-67
2021/01/20 16:42:57;;;;;;;;;70.00;55.00;;;;;;;;5050007;28;9702;-68
2021/01/20 16:45:23;;;;;;;;;65.00;53.33;;;;;;;;5052228;28;8955;-69
2021/01/20 16:47:49;;;;;;;;;74.33;56.67;;;;;;;;5052226;28;9596;-67
2021/01/20 16:50:15;;;;;;;;;68.33;56.00;;;;;;;;5051725;28;9565;-67
2021/01/20 16:52:41;;;;;;;;;69.33;56.67;;;;;;;;5052204;28;8837;-68
2021/01/20 16:55:07;;;;;;;;;69.00;57.67;;;;;;;;5052250;28;8845;-65
2021/01/20 16:57:33;;;;;;;;;74.67;57.67;;;;;;;;5050226;28;8837;-66
2021/01/20 17:00:00;;;;;;;;;71.00;58.67;;;;;;;;5049684;28;8849;-66
2021/01/20 17:02:26;;;;;;;;;69.67;58.67;;;;;;;;5051912;28;8949;-66
2021/01/20 17:04:52;;;;;;;;;72.75;60.00;;;;;;;;5048220;28;8845;-67
2021/01/20 17:07:18;;;;;;;;;76.00;58.33;;;;;;;;5047930;28;8838;-65
2021/01/20 17:09:44;;;;;;;;;75.33;57.00;;;;;;;;5051679;28;8826;-65
2021/01/20 17:12:10;;;;;;;;;72.00;57.67;;;;;;;;5047602;28;8967;-66
2021/01/20 17:14:36;;;;;;;;;74.33;57.67;;;;;;;;5051937;28;8849;-65
2021/01/20 17:17:03;;;;;;;;;73.00;58.67;;;;;;;;5051964;28;8914;-66
2021/01/20 17:19:29;;;;;;;;;71.00;59.33;;;;;;;;5051614;28;8935;-65
2021/01/20 17:21:55;;;;;;;;;76.75;61.00;;;;;;;;5051847;28;8837;-67
2021/01/20 17:24:21;;;;;;;;;79.75;60.50;;;;;;;;5051850;28;8926;-66
2021/01/20 17:26:47;;;;;;;;;59.67;46.67;;;;;;;;5052321;28;8838;-66
2021/01/20 17:29:12;;;;;;;;;72.33;58.00;;;;;;;;5047344;28;8844;-66
2021/01/20 17:31:38;;;;;;;;;72.67;59.33;;;;;;;;5051893;28;8850;-66
2021/01/20 17:34:05;;;;;;;;;66.67;56.00;;;;;;;;5047271;28;8871;-66
2021/01/20 17:36:31;;;;;;;;;66.33;55.00;;;;;;;;5047510;28;8980;-67
2021/01/20 17:38:57;;;;;;;;;68.00;55.00;;;;;;;;5050407;28;9020;-65
2021/01/20 17:41:23;;;;;;;;;65.00;50.67;;;;;;;;5048288;28;8868;-65
2021/01/20 17:43:49;;;;;;;;;66.00;52.33;;;;;;;;5050372;28;8852;-66
2021/01/20 17:46:16;;;;;;;;;59.33;47.00;;;;;;;;5047672;28;8978;-71
2021/01/20 17:48:42;;;;;;;;;55.00;46.00;;;;;;;;5040385;28;8884;-71
2021/01/20 17:51:09;;;;;;;;;54.00;43.67;;;;;;;;5045597;28;8834;-71
2021/01/20 17:53:35;;;;;;;;;42.33;39.00;;;;;;;;5047018;28;8854;-69
2021/01/20 17:56:01;;;;;;;;;37.00;31.33;;;;;;;;5048813;28;8849;-71
2021/01/20 17:58:26;;;;;;;;;37.00;33.00;;;;;;;;5042307;28;8837;-70
2021/01/20 18:00:52;;;;;;;;;40.00;35.33;;;;;;;;5050119;28;8860;-68
2021/01/20 18:03:18;;;;;;;;;40.33;35.67;;;;;;;;5045099;28;8853;-69
2021/01/20 18:05:44;;;;;;;;;42.00;30.33;;;;;;;;5046933;28;8832;-69
2021/01/20 18:08:11;;;;;;;;;37.33;32.67;;;;;;;;5049102;28;8854;-71
2021/01/20 18:10:37;;;;;;;;;30.00;27.00;;;;;;;;5048968;28;8833;-70
2021/01/20 18:13:03;;;;;;;;;26.33;21.67;;;;;;;;5049795;28;8911;-71
2021/01/20 18:15:29;;;;;;;;;26.67;26.00;;;;;;;;5049208;28;8980;-70
2021/01/20 18:17:55;;;;;;;;;25.33;21.33;;;;;;;;5049395;28;9591;-69
2021/01/20 18:20:21;;;;;;;;;23.00;22.33;;;;;;;;5048088;28;8853;-70
2021/01/20 18:22:46;;;;;;;;;35.67;30.67;;;;;;;;5049284;28;8949;-69
2021/01/20 18:25:14;;;;;;;;;37.00;34.33;;;;;;;;5048993;28;8857;-68
2021/01/20 18:27:39;;;;;;;;;31.67;25.33;;;;;;;;5046868;28;8885;-69
2021/01/20 18:30:06;;;;;;;;;26.00;24.67;;;;;;;;5048040;28;8841;-70
2021/01/20 18:32:32;;;;;;;;;19.67;17.00;;;;;;;;5047482;28;8841;-70
2021/01/20 18:34:58;;;;;;;;;22.00;20.33;;;;;;;;5045360;28;8862;-69
2021/01/20 18:37:24;;;;;;;;;22.00;18.33;;;;;;;;5040659;28;8844;-70
2021/01/20 18:39:50;;;;;;;;;25.00;21.00;;;;;;;;5044532;28;8845;-70
2021/01/20 18:42:17;;;;;;;;;23.67;21.00;;;;;;;;5043921;28;8853;-72
2021/01/20 18:44:43;;;;;;;;;18.67;17.67;;;;;;;;5048011;28;8969;-71
2021/01/20 18:47:08;;;;;;;;;17.00;14.67;;;;;;;;5050241;28;11659;-75
2021/01/20 18:49:34;;;;;;;;;28.33;18.33;;;;;;;;5049850;28;8841;-71
2021/01/20 18:52:00;;;;;;;;;13.50;13.00;;;;;;;;5050236;28;8964;-70
2021/01/20 18:54:26;;;;;;;;;12.50;12.00;;;;;;;;5049363;28;8879;-70
2021/01/20 18:56:52;;;;;;;;;18.75;13.25;;;;;;;;5049655;28;8915;-69
2021/01/20 18:59:19;;;;;;;;;10.75;10.25;;;;;;;;5049742;28;8842;-68
2021/01/20 19:01:45;;;;;;;;;14.25;13.25;;;;;;;;5048953;28;8993;-70
2021/01/20 19:04:11;;;;;;;;;19.00;14.75;;;;;;;;5049078;28;12493;-70
2021/01/20 19:06:38;;;;;;;;;17.00;14.00;;;;;;;;5049673;28;11713;-69
2021/01/20 19:09:04;;;;;;;;;14.75;14.75;;;;;;;;5049726;28;8837;-70
2021/01/20 19:11:30;;;;;;;;;16.50;16.00;;;;;;;;5045066;28;11676;-67
2021/01/20 19:13:56;;;;;;;;;17.50;16.50;;;;;;;;5047892;28;11545;-68
2021/01/20 19:16:23;;;;;;;;;16.50;16.00;;;;;;;;5047573;28;8938;-68
2021/01/20 19:18:49;;;;;;;;;15.25;13.50;;;;;;;;5043500;28;8849;-67
2021/01/20 19:21:15;;;;;;;;;13.50;11.00;;;;;;;;5044057;28;11702;-66
2021/01/20 19:23:41;;;;;;;;;12.50;11.00;;;;;;;;5048258;28;8853;-68
2021/01/20 19:26:07;;;;;;;;;14.75;14.75;;;;;;;;5047957;28;9549;-69
2021/01/20 19:28:33;;;;;;;;;15.00;14.25;;;;;;;;5047691;28;8876;-69
2021/01/20 19:30:59;;;;;;;;;14.00;13.75;;;;;;;;5043908;28;8988;-67
2021/01/20 19:33:26;;;;;;;;;14.67;13.67;;;;;;;;5039064;28;12308;-68
2021/01/20 19:35:52;;;;;;;;;13.50;12.00;;;;;;;;5044205;28;8968;-68
2021/01/20 19:38:18;;;;;;;;;16.33;14.33;;;;;;;;5047170;28;12310;-69
2021/01/20 19:40:44;;;;;;;;;16.00;13.67;;;;;;;;5047947;28;8837;-69
2021/01/20 19:43:10;;;;;;;;;13.00;13.00;;;;;;;;5047781;28;11595;-71
2021/01/20 19:45:36;;;;;;;;;15.00;13.75;;;;;;;;5046814;28;11575;-70
2021/01/20 19:48:02;;;;;;;;;13.75;10.25;;;;;;;;5048311;28;8841;-69
2021/01/20 19:50:29;;;;;;;;;13.75;10.25;;;;;;;;5047016;28;8865;-69
2021/01/20 19:52:55;;;;;;;;;13.50;10.75;;;;;;;;5048300;28;11655;-69
2021/01/20 19:55:21;;;;;;;;;20.75;17.00;;;;;;;;5043237;28;11590;-70
2021/01/20 19:57:47;;;;;;;;;18.00;16.75;;;;;;;;5052177;28;8857;-69
2021/01/20 20:00:14;;;;;;;;;16.25;13.75;;;;;;;;5051251;28;8978;-72
2021/01/20 20:02:40;;;;;;;;;17.50;14.00;;;;;;;;5052155;28;8853;-70
2021/01/20 20:05:07;;;;;;;;;15.00;14.50;;;;;;;;5051927;28;11667;-69
2021/01/20 20:07:34;;;;;;;;;14.00;14.00;;;;;;;;5051012;28;11747;-69
2021/01/20 20:10:01;;;;;;;;;17.50;15.50;;;;;;;;5052497;28;11550;-69
2021/01/20 20:12:27;;;;;;;;;13.50;13.25;;;;;;;;5050997;28;11571;-74
2021/01/20 20:14:53;;;;;;;;;14.50;14.50;;;;;;;;5044949;28;11574;-69
2021/01/20 20:17:18;;;;;;;;;18.75;17.50;;;;;;;;5051138;28;8837;-69
2021/01/20 20:19:44;;;;;;;;;13.25;13.25;;;;;;;;5051745;28;8944;-70
2021/01/20 20:22:10;;;;;;;;;14.00;13.25;;;;;;;;5051676;28;8868;-69
2021/01/20 20:24:37;;;;;;;;;21.50;16.00;;;;;;;;5051164;28;8845;-78
2021/01/20 20:27:03;;;;;;;;;14.50;14.50;;;;;;;;5051701;28;8833;-70
2021/01/20 20:29:29;;;;;;;;;15.25;15.25;;;;;;;;5046984;28;11668;-69
2021/01/20 20:31:55;;;;;;;;;17.00;17.00;;;;;;;;5050660;28;11626;-69
2021/01/20 20:34:21;;;;;;;;;21.00;17.00;;;;;;;;5050513;28;8892;-70
2021/01/20 20:36:47;;;;;;;;;18.00;13.50;;;;;;;;5051630;28;8886;-70
2021/01/20 20:39:13;;;;;;;;;20.00;16.25;;;;;;;;5051051;28;8922;-70
2021/01/20 20:41:40;;;;;;;;;16.25;15.00;;;;;;;;5051106;28;11581;-70
2021/01/20 20:44:06;;;;;;;;;20.75;16.25;;;;;;;;5051198;28;8964;-69
2021/01/20 20:46:32;;;;;;;;;15.00;14.75;;;;;;;;5050704;28;11564;-71
2021/01/20 20:49:00;;;;;;;;;16.50;15.00;;;;;;;;5050965;28;11694;-69
2021/01/20 20:51:26;;;;;;;;;18.00;13.25;;;;;;;;5050607;28;12440;-70
2021/01/20 20:53:52;;;;;;;;;15.25;13.75;;;;;;;;5050959;28;11684;-72
2021/01/20 20:56:18;;;;;;;;;15.50;14.00;;;;;;;;5050323;28;8864;-71
2021/01/20 20:58:45;;;;;;;;;16.25;15.00;;;;;;;;5051025;28;8922;-70
2021/01/20 21:01:11;;;;;;;;;19.75;17.75;;;;;;;;5049263;28;8972;-74
2021/01/20 21:03:36;;;;;;;;;15.25;15.25;;;;;;;;5019321;28;11623;-69
2021/01/20 21:06:02;;;;;;;;;22.75;18.75;;;;;;;;5050368;28;11695;-71
2021/01/20 21:08:30;;;;;;;;;20.00;15.50;;;;;;;;5050134;28;9585;-70
2021/01/20 21:10:56;;;;;;;;;14.00;14.00;;;;;;;;5050931;28;8944;-69
2021/01/20 21:13:21;;;;;;;;;16.50;14.00;;;;;;;;5042203;28;11601;-70
2021/01/20 21:15:48;;;;;;;;;21.25;15.00;;;;;;;;4997152;28;8861;-68
2021/01/20 21:18:14;;;;;;;;;22.25;17.75;;;;;;;;5049620;28;8850;-69
2021/01/20 21:20:40;;;;;;;;;15.00;15.00;;;;;;;;5050494;28;11562;-69
2021/01/20 21:23:06;;;;;;;;;15.00;13.25;;;;;;;;5050756;28;8860;-69
2021/01/20 21:25:32;;;;;;;;;17.50;16.75;;;;;;;;5049687;28;8854;-69
2021/01/20 21:27:58;;;;;;;;;20.00;16.25;;;;;;;;5050798;28;8853;-69
2021/01/20 21:30:24;;;;;;;;;18.50;14.75;;;;;;;;5045654;28;8865;-68
2021/01/20 21:32:51;;;;;;;;;17.75;14.50;;;;;;;;5050085;28;8853;-69
2021/01/20 21:35:17;;;;;;;;;19.25;15.00;;;;;;;;5046213;28;11710;-69
2021/01/20 21:37:43;;;;;;;;;19.00;19.00;;;;;;;;5046609;28;11571;-69
2021/01/20 21:40:09;;;;;;;;;16.00;14.50;;;;;;;;5049962;28;9709;-70
2021/01/20 21:42:35;;;;;;;;;14.75;14.25;;;;;;;;5048161;28;8972;-68
2021/01/20 21:45:01;;;;;;;;;20.00;18.75;;;;;;;;5049203;28;11618;-70
2021/01/20 21:47:29;;;;;;;;;24.00;17.00;;;;;;;;5048581;28;8845;-69
2021/01/20 21:49:55;;;;;;;;;18.75;15.75;;;;;;;;5048776;28;8955;-70
2021/01/20 21:52:21;;;;;;;;;19.25;18.00;;;;;;;;5048769;28;11561;-69
2021/01/20 21:54:47;;;;;;;;;22.50;15.75;;;;;;;;5049130;28;11586;-70
2021/01/20 21:57:13;;;;;;;;;16.25;15.00;;;;;;;;5048561;28;8935;-70
2021/01/20 21:59:39;;;;;;;;;20.25;16.25;;;;;;;;5049238;28;8960;-70
2021/01/20 22:02:05;;;;;;;;;17.50;15.00;;;;;;;;5047179;28;8865;-70
2021/01/20 22:04:31;;;;;;;;;17.00;16.25;;;;;;;;5048853;28;9629;-68
2021/01/20 22:06:58;;;;;;;;;18.00;16.75;;;;;;;;5048925;28;8845;-70
2021/01/20 22:09:24;;;;;;;;;18.50;16.75;;;;;;;;5048491;28;11539;-69
2021/01/20 22:11:50;;;;;;;;;19.00;16.25;;;;;;;;5048888;28;11721;-69
2021/01/20 22:14:16;;;;;;;;;16.25;15.00;;;;;;;;5048337;28;8857;-69
2021/01/20 22:16:42;;;;;;;;;13.00;10.25;;;;;;;;5048503;28;11673;-67
2021/01/20 22:19:08;;;;;;;;;17.50;14.75;;;;;;;;5048204;28;8850;-68
2021/01/20 22:21:45;;;;;;;;;18.25;14.25;;;;;;;;5048729;28;8852;-67
2021/01/20 22:24:12;;;;;;;;;13.75;13.75;;;;;;;;5047289;28;8845;-68
2021/01/20 22:26:38;;;;;;;;;15.25;15.25;;;;;;;;5049444;28;11677;-70
2021/01/20 22:29:04;;;;;;;;;16.25;15.50;;;;;;;;5048250;28;11579;-69
2021/01/20 22:31:30;;;;;;;;;13.75;12.00;;;;;;;;5045793;28;8868;-69
2021/01/20 22:33:56;;;;;;;;;21.25;15.00;;;;;;;;5047322;28;8980;-69
2021/01/20 22:36:22;;;;;;;;;18.00;14.75;;;;;;;;5046720;28;8853;-70
2021/01/20 22:38:48;;;;;;;;;15.50;14.75;;;;;;;;5049068;28;8864;-71
2021/01/20 22:41:14;;;;;;;;;15.50;14.00;;;;;;;;5049699;28;8853;-69
2021/01/20 22:43:41;;;;;;;;;16.25;13.25;;;;;;;;5049131;28;9002;-69
2021/01/20 22:46:06;;;;;;;;;17.50;13.00;;;;;;;;5048180;28;11562;-65
2021/01/20 22:48:32;;;;;;;;;15.25;13.50;;;;;;;;5045423;28;11577;-67
2021/01/20 22:50:58;;;;;;;;;13.50;12.00;;;;;;;;5050531;28;8837;-68
2021/01/20 22:53:24;;;;;;;;;15.75;11.75;;;;;;;;5050294;28;8968;-68
2021/01/20 22:55:50;;;;;;;;;18.75;13.75;;;;;;;;5050334;28;8865;-67
2021/01/20 22:58:17;;;;;;;;;14.00;12.25;;;;;;;;5050319;28;8834;-67
2021/01/20 23:00:43;;;;;;;;;13.25;12.50;;;;;;;;5050256;28;11688;-68
2021/01/20 23:03:11;;;;;;;;;14.25;11.00;;;;;;;;5050259;28;11725;-67
2021/01/20 23:05:37;;;;;;;;;12.25;10.25;;;;;;;;5050234;28;11563;-69
2021/01/20 23:08:03;;;;;;;;;11.00;10.00;;;;;;;;5050222;28;11564;-68
2021/01/20 23:10:29;;;;;;;;;11.50;10.00;;;;;;;;5050036;28;9776;-67
2021/01/20 23:12:55;;;;;;;;;14.00;11.50;;;;;;;;5045996;28;11567;-68
2021/01/20 23:15:22;;;;;;;;;10.50;10.50;;;;;;;;5049688;28;8841;-68
2021/01/20 23:17:49;;;;;;;;;11.50;11.00;;;;;;;;5050052;28;9098;-68
2021/01/20 23:20:16;;;;;;;;;13.25;10.25;;;;;;;;5049640;28;11610;-69
2021/01/20 23:22:42;;;;;;;;;12.50;10.75;;;;;;;;5049733;28;11568;-68
2021/01/20 23:25:09;;;;;;;;;13.25;9.25;;;;;;;;5050205;28;11610;-68
2021/01/20 23:27:34;;;;;;;;;17.50;10.00;;;;;;;;5049784;28;11684;-68
2021/01/20 23:30:01;;;;;;;;;12.75;11.25;;;;;;;;5049792;28;11677;-67
2021/01/20 23:32:28;;;;;;;;;15.25;13.00;;;;;;;;5045941;28;8844;-68